Annis, ID

2:45 AM MST on December 03, 2016 (GMT -0700)
Labelle | | Change Station

Elev 4865 ft 43.70 °N, 111.89 °W | Updated 5 seconds ago

Overcast
Overcast
24.2 °F
Feels Like 24 °F
N
3.0
Wind Variable Wind from SSW

Today
High -- | Low -- °F
--% Chance of Precip.
Yesterday
High -- | Low -- °F
Precip. -- in
Pressure 30.30 in
Visibility 9.0 miles
Clouds Overcast 2000 ft
Windchill 24 °F
Dew Point 21 °F
Humidity 88%
Rainfall 0.00 in
Snow Depth Not available.
7:44 AM 4:51 PM
Waxing Crescent, 14% visible
METAR KRXE 030853Z AUTO 19009KT 9SM OVC020 M05/M08 A3017 RMK AO2 SNE52 SLP261 P0000 60000 T10501078 57019
Pressure 30.30 in
Visibility 9.0 miles
Clouds Overcast 2000 ft
Windchill 24 °F
Dew Point 21 °F
Humidity 88%
Rainfall 0.00 in
Snow Depth Not available.
7:44 AM 4:51 PM
Waxing Crescent, 14% visible
METAR KRXE 030853Z AUTO 19009KT 9SM OVC020 M05/M08 A3017 RMK AO2 SNE52 SLP261 P0000 60000 T10501078 57019

10-Day Weather Forecast

Almanac

Astronomy

Dec. 03, 2016 Rise Set
Actual Time
Civil Twilight
Nautical Twilight
Astronomical Twilight
Moon
Length of Visible Light
Length of Day
Tomorrow will be .
, % of the Moon is Illuminated

Today's Extremes

State Highs State Lows

Community

WunderPhotos

Upload Photos

1,955,434 photos uploaded!

WunderBlog® & News

Nearby

Air Quality

  Air Quality AQ Index Pollutant
Not available.

Snow Depth

Station Depth Elevation

Earthquake Activity

City Distance Mag. Time & Date
Minimum magnitude displayed is 2.5.

Coastal Water Temperatures

Place Temperature

Stations

Nearby Weather Stations

Station Location Temp. Windchill Dew Point Humidity Wind Precip. Elev Updated Type
                   

Watches & Warnings

There are currently no watches in effect.